Accueil
METAR-TAF:

METAR-TAF

Aéroports :

Bornemouth, Angleterre

Aéroport de Bournemouth

latitude: 50-47N, longitude: 001-50W, altitude: 11 m

Observation

Le bulletin a été fait il y a 20 minutes, à 19:20 UTC
Vent 3 kt de direction variable
Température 19°C
Humidité 68%
Pression 1025 hPa
Visibilité 10 km ou plus
pas de nuages en-dessous de 1500 mètres et pas de cumulonimbus.

METAR: EGHH 241920Z VRB03KT CAVOK 19/13 Q1025

Heure: 20:40 (19:40 UTC)

Prévision

Le bulletin a été fait il y a 1 heure et 7 minutes, à 18:33 UTC
Prévision valable du 24 à 18 UTC au 25 à 03 UTC
Vent 9 kt de sud
Visibilité 10 km ou plus
Nuages épars à une hauteur de 3500 ft

TAF: EGHH 241833Z 2418/2503 19009KT 9999 SCT035

Observations et prévisions météorologiques de plus de 4000 aéroports (messages METAR et TAF).

Les stations disponibles sont représentées par des disques jaunes et rouges sur la carte.

Passer la souris dessus pour voir le nom de la station.

Cliquer dessus pour voir les observations et prévisions météorologiques.

Pour changer de carte: cliquez sur les boutons verts avec une croix noire pour zoomer, sur le bouton vert avec un tiret pour effectuer un zoom arrière, ou sur les flèches vertes pour les cartes adjacentes.


METAR-TAF: